sensor_id;sensor_type;location;lat;lon;timestamp;P1;durP1;ratioP1;P2;durP2;ratioP2
13891;SDS011;7016;48.172;8.058;2023-04-03T00:00:04;3.50;;;2.50;;
13891;SDS011;7016;48.172;8.058;2023-04-03T00:02:30;2.50;;;2.10;;
13891;SDS011;7016;48.172;8.058;2023-04-03T00:04:56;3.10;;;2.55;;
13891;SDS011;7016;48.172;8.058;2023-04-03T00:07:22;4.25;;;2.53;;
13891;SDS011;7016;48.172;8.058;2023-04-03T00:09:47;4.93;;;2.63;;
13891;SDS011;7016;48.172;8.058;2023-04-03T00:12:13;5.95;;;3.00;;
13891;SDS011;7016;48.172;8.058;2023-04-03T00:14:40;4.60;;;3.05;;
13891;SDS011;7016;48.172;8.058;2023-04-03T00:17:06;4.45;;;3.20;;
13891;SDS011;7016;48.172;8.058;2023-04-03T00:19:32;4.65;;;2.72;;
13891;SDS011;7016;48.172;8.058;2023-04-03T00:21:57;5.32;;;3.25;;
13891;SDS011;7016;48.172;8.058;2023-04-03T00:24:23;3.75;;;2.80;;
13891;SDS011;7016;48.172;8.058;2023-04-03T00:26:49;4.60;;;3.42;;
13891;SDS011;7016;48.172;8.058;2023-04-03T00:29:15;4.50;;;3.05;;
13891;SDS011;7016;48.172;8.058;2023-04-03T00:31:40;5.32;;;3.00;;
13891;SDS011;7016;48.172;8.058;2023-04-03T00:34:07;4.75;;;3.17;;
13891;SDS011;7016;48.172;8.058;2023-04-03T00:36:32;3.85;;;3.15;;
13891;SDS011;7016;48.172;8.058;2023-04-03T00:38:58;4.32;;;3.25;;
13891;SDS011;7016;48.172;8.058;2023-04-03T00:41:24;4.72;;;3.15;;
13891;SDS011;7016;48.172;8.058;2023-04-03T00:43:50;4.70;;;3.20;;
13891;SDS011;7016;48.172;8.058;2023-04-03T00:46:16;5.40;;;3.20;;
13891;SDS011;7016;48.172;8.058;2023-04-03T00:48:46;6.55;;;3.03;;
13891;SDS011;7016;48.172;8.058;2023-04-03T00:51:14;6.15;;;3.45;;
13891;SDS011;7016;48.172;8.058;2023-04-03T00:53:53;6.72;;;3.72;;
13891;SDS011;7016;48.172;8.058;2023-04-03T00:56:22;5.22;;;3.30;;
13891;SDS011;7016;48.172;8.058;2023-04-03T00:58:59;5.43;;;3.75;;
13891;SDS011;7016;48.172;8.058;2023-04-03T01:01:29;6.43;;;3.50;;
13891;SDS011;7016;48.172;8.058;2023-04-03T01:03:55;5.25;;;3.65;;
13891;SDS011;7016;48.172;8.058;2023-04-03T01:06:24;5.40;;;3.47;;
13891;SDS011;7016;48.172;8.058;2023-04-03T01:08:53;5.53;;;3.63;;
13891;SDS011;7016;48.172;8.058;2023-04-03T01:11:19;4.50;;;3.20;;
13891;SDS011;7016;48.172;8.058;2023-04-03T01:13:46;4.90;;;3.15;;
13891;SDS011;7016;48.172;8.058;2023-04-03T01:16:12;5.15;;;3.03;;
13891;SDS011;7016;48.172;8.058;2023-04-03T01:18:38;10.13;;;3.45;;
13891;SDS011;7016;48.172;8.058;2023-04-03T01:26:27;4.15;;;2.63;;
13891;SDS011;7016;48.172;8.058;2023-04-03T01:28:54;6.13;;;2.80;;
13891;SDS011;7016;48.172;8.058;2023-04-03T01:34:15;4.80;;;3.35;;
13891;SDS011;7016;48.172;8.058;2023-04-03T01:36:40;4.70;;;3.05;;
13891;SDS011;7016;48.172;8.058;2023-04-03T01:39:06;3.75;;;2.67;;
13891;SDS011;7016;48.172;8.058;2023-04-03T01:41:32;4.72;;;2.72;;
13891;SDS011;7016;48.172;8.058;2023-04-03T01:43:58;5.03;;;3.22;;
13891;SDS011;7016;48.172;8.058;2023-04-03T01:46:24;4.85;;;2.70;;
13891;SDS011;7016;48.172;8.058;2023-04-03T01:48:50;5.82;;;2.80;;
13891;SDS011;7016;48.172;8.058;2023-04-03T01:51:15;3.92;;;2.65;;
13891;SDS011;7016;48.172;8.058;2023-04-03T01:53:41;4.70;;;2.60;;
13891;SDS011;7016;48.172;8.058;2023-04-03T01:56:07;4.57;;;2.70;;
13891;SDS011;7016;48.172;8.058;2023-04-03T01:58:32;5.32;;;3.05;;
13891;SDS011;7016;48.172;8.058;2023-04-03T02:00:58;4.82;;;2.80;;
13891;SDS011;7016;48.172;8.058;2023-04-03T02:03:24;4.15;;;2.70;;
13891;SDS011;7016;48.172;8.058;2023-04-03T02:05:50;4.13;;;2.67;;
13891;SDS011;7016;48.172;8.058;2023-04-03T02:08:16;5.65;;;2.85;;
13891;SDS011;7016;48.172;8.058;2023-04-03T02:10:43;4.22;;;2.67;;
13891;SDS011;7016;48.172;8.058;2023-04-03T02:13:13;3.08;;;2.50;;
13891;SDS011;7016;48.172;8.058;2023-04-03T02:15:38;4.05;;;2.40;;
13891;SDS011;7016;48.172;8.058;2023-04-03T02:18:04;4.57;;;2.63;;
13891;SDS011;7016;48.172;8.058;2023-04-03T02:20:31;5.00;;;2.70;;
13891;SDS011;7016;48.172;8.058;2023-04-03T02:22:56;4.63;;;2.63;;
13891;SDS011;7016;48.172;8.058;2023-04-03T02:25:23;4.20;;;2.65;;
13891;SDS011;7016;48.172;8.058;2023-04-03T02:27:48;3.85;;;2.45;;
13891;SDS011;7016;48.172;8.058;2023-04-03T02:30:14;3.35;;;2.40;;
13891;SDS011;7016;48.172;8.058;2023-04-03T02:32:41;3.58;;;2.38;;
13891;SDS011;7016;48.172;8.058;2023-04-03T02:35:07;3.78;;;2.60;;
13891;SDS011;7016;48.172;8.058;2023-04-03T02:37:35;3.65;;;2.42;;
13891;SDS011;7016;48.172;8.058;2023-04-03T02:40:01;3.97;;;2.53;;
13891;SDS011;7016;48.172;8.058;2023-04-03T02:42:28;3.05;;;2.40;;
13891;SDS011;7016;48.172;8.058;2023-04-03T02:44:53;3.38;;;2.40;;
13891;SDS011;7016;48.172;8.058;2023-04-03T02:47:20;6.07;;;2.80;;
13891;SDS011;7016;48.172;8.058;2023-04-03T02:49:46;4.90;;;2.70;;
13891;SDS011;7016;48.172;8.058;2023-04-03T02:52:12;2.67;;;2.30;;
13891;SDS011;7016;48.172;8.058;2023-04-03T02:54:38;3.47;;;2.38;;
13891;SDS011;7016;48.172;8.058;2023-04-03T02:57:04;4.53;;;2.60;;
13891;SDS011;7016;48.172;8.058;2023-04-03T02:59:30;5.05;;;2.72;;
13891;SDS011;7016;48.172;8.058;2023-04-03T03:01:56;4.00;;;2.72;;
13891;SDS011;7016;48.172;8.058;2023-04-03T03:04:21;4.13;;;2.55;;
13891;SDS011;7016;48.172;8.058;2023-04-03T03:06:47;3.38;;;2.28;;
13891;SDS011;7016;48.172;8.058;2023-04-03T03:09:13;4.45;;;2.40;;
13891;SDS011;7016;48.172;8.058;2023-04-03T03:11:39;3.33;;;2.38;;
13891;SDS011;7016;48.172;8.058;2023-04-03T03:14:05;5.35;;;2.90;;
13891;SDS011;7016;48.172;8.058;2023-04-03T03:16:31;3.30;;;2.38;;
13891;SDS011;7016;48.172;8.058;2023-04-03T03:18:56;4.78;;;2.80;;
13891;SDS011;7016;48.172;8.058;2023-04-03T03:21:22;5.40;;;2.75;;
13891;SDS011;7016;48.172;8.058;2023-04-03T03:23:48;3.53;;;2.80;;
13891;SDS011;7016;48.172;8.058;2023-04-03T03:26:13;4.25;;;2.75;;
13891;SDS011;7016;48.172;8.058;2023-04-03T03:28:39;3.67;;;2.72;;
13891;SDS011;7016;48.172;8.058;2023-04-03T03:31:06;5.70;;;3.17;;
13891;SDS011;7016;48.172;8.058;2023-04-03T03:33:33;4.43;;;3.35;;
13891;SDS011;7016;48.172;8.058;2023-04-03T03:35:59;5.90;;;3.40;;
13891;SDS011;7016;48.172;8.058;2023-04-03T03:38:25;3.92;;;3.20;;
13891;SDS011;7016;48.172;8.058;2023-04-03T03:40:51;4.28;;;2.95;;
13891;SDS011;7016;48.172;8.058;2023-04-03T03:43:17;4.50;;;3.65;;
13891;SDS011;7016;48.172;8.058;2023-04-03T03:45:44;5.90;;;3.63;;
13891;SDS011;7016;48.172;8.058;2023-04-03T03:48:10;4.70;;;3.45;;
13891;SDS011;7016;48.172;8.058;2023-04-03T03:50:36;5.57;;;3.40;;
13891;SDS011;7016;48.172;8.058;2023-04-03T03:53:02;5.85;;;3.58;;
13891;SDS011;7016;48.172;8.058;2023-04-03T03:55:27;6.95;;;3.90;;
13891;SDS011;7016;48.172;8.058;2023-04-03T03:57:53;5.75;;;3.35;;
13891;SDS011;7016;48.172;8.058;2023-04-03T04:00:19;4.65;;;3.38;;
13891;SDS011;7016;48.172;8.058;2023-04-03T04:02:45;5.85;;;4.00;;
13891;SDS011;7016;48.172;8.058;2023-04-03T04:05:11;4.88;;;3.50;;
13891;SDS011;7016;48.172;8.058;2023-04-03T04:07:36;7.18;;;4.20;;
13891;SDS011;7016;48.172;8.058;2023-04-03T04:10:02;5.78;;;4.00;;
13891;SDS011;7016;48.172;8.058;2023-04-03T04:12:28;6.97;;;3.80;;
13891;SDS011;7016;48.172;8.058;2023-04-03T04:14:54;5.50;;;3.40;;
13891;SDS011;7016;48.172;8.058;2023-04-03T04:17:20;5.38;;;3.70;;
13891;SDS011;7016;48.172;8.058;2023-04-03T04:19:46;4.63;;;3.53;;
13891;SDS011;7016;48.172;8.058;2023-04-03T04:22:12;5.88;;;4.20;;
13891;SDS011;7016;48.172;8.058;2023-04-03T04:24:38;6.85;;;4.45;;
13891;SDS011;7016;48.172;8.058;2023-04-03T04:27:03;5.53;;;3.80;;
13891;SDS011;7016;48.172;8.058;2023-04-03T04:29:29;6.72;;;4.45;;
13891;SDS011;7016;48.172;8.058;2023-04-03T04:32:00;5.07;;;3.97;;
13891;SDS011;7016;48.172;8.058;2023-04-03T04:34:26;5.13;;;3.92;;
13891;SDS011;7016;48.172;8.058;2023-04-03T04:36:51;6.25;;;4.43;;
13891;SDS011;7016;48.172;8.058;2023-04-03T04:39:17;5.75;;;4.32;;
13891;SDS011;7016;48.172;8.058;2023-04-03T04:41:43;5.75;;;4.03;;
13891;SDS011;7016;48.172;8.058;2023-04-03T04:44:08;7.38;;;4.20;;
13891;SDS011;7016;48.172;8.058;2023-04-03T04:46:34;7.15;;;4.30;;
13891;SDS011;7016;48.172;8.058;2023-04-03T04:49:00;7.80;;;4.50;;
13891;SDS011;7016;48.172;8.058;2023-04-03T04:51:26;8.30;;;5.68;;
13891;SDS011;7016;48.172;8.058;2023-04-03T04:53:51;6.95;;;4.90;;
13891;SDS011;7016;48.172;8.058;2023-04-03T04:56:17;8.40;;;5.63;;
13891;SDS011;7016;48.172;8.058;2023-04-03T04:58:43;9.85;;;5.28;;
13891;SDS011;7016;48.172;8.058;2023-04-03T05:01:09;8.52;;;5.70;;
13891;SDS011;7016;48.172;8.058;2023-04-03T05:03:36;7.65;;;5.35;;
13891;SDS011;7016;48.172;8.058;2023-04-03T05:06:01;6.50;;;4.95;;
13891;SDS011;7016;48.172;8.058;2023-04-03T05:08:27;8.35;;;5.85;;
13891;SDS011;7016;48.172;8.058;2023-04-03T05:10:53;8.15;;;4.72;;
13891;SDS011;7016;48.172;8.058;2023-04-03T05:13:19;8.85;;;5.50;;
13891;SDS011;7016;48.172;8.058;2023-04-03T05:15:45;8.88;;;5.18;;
13891;SDS011;7016;48.172;8.058;2023-04-03T05:18:11;8.02;;;5.30;;
13891;SDS011;7016;48.172;8.058;2023-04-03T05:20:37;9.18;;;5.22;;
13891;SDS011;7016;48.172;8.058;2023-04-03T05:23:03;8.82;;;5.20;;
13891;SDS011;7016;48.172;8.058;2023-04-03T05:25:29;6.68;;;4.70;;
13891;SDS011;7016;48.172;8.058;2023-04-03T05:27:55;12.00;;;5.35;;
13891;SDS011;7016;48.172;8.058;2023-04-03T05:30:21;8.25;;;5.55;;
13891;SDS011;7016;48.172;8.058;2023-04-03T05:32:46;7.13;;;4.70;;
13891;SDS011;7016;48.172;8.058;2023-04-03T05:35:12;9.25;;;5.10;;
13891;SDS011;7016;48.172;8.058;2023-04-03T05:37:40;8.23;;;5.28;;
13891;SDS011;7016;48.172;8.058;2023-04-03T05:40:06;7.53;;;5.18;;
13891;SDS011;7016;48.172;8.058;2023-04-03T05:42:33;8.77;;;5.43;;
13891;SDS011;7016;48.172;8.058;2023-04-03T05:44:58;7.22;;;5.07;;
13891;SDS011;7016;48.172;8.058;2023-04-03T05:47:24;8.38;;;4.80;;
13891;SDS011;7016;48.172;8.058;2023-04-03T05:49:50;7.43;;;5.60;;
13891;SDS011;7016;48.172;8.058;2023-04-03T05:54:52;7.75;;;4.88;;
13891;SDS011;7016;48.172;8.058;2023-04-03T05:57:18;8.48;;;5.35;;
13891;SDS011;7016;48.172;8.058;2023-04-03T05:59:44;8.85;;;4.75;;
13891;SDS011;7016;48.172;8.058;2023-04-03T06:02:15;7.88;;;5.53;;
13891;SDS011;7016;48.172;8.058;2023-04-03T06:04:42;7.10;;;4.53;;
13891;SDS011;7016;48.172;8.058;2023-04-03T06:07:12;6.80;;;4.72;;
13891;SDS011;7016;48.172;8.058;2023-04-03T06:09:40;20.58;;;9.25;;
13891;SDS011;7016;48.172;8.058;2023-04-03T06:12:06;24.52;;;14.38;;
13891;SDS011;7016;48.172;8.058;2023-04-03T06:14:32;8.68;;;5.47;;
13891;SDS011;7016;48.172;8.058;2023-04-03T06:16:58;7.38;;;5.00;;
13891;SDS011;7016;48.172;8.058;2023-04-03T06:19:25;6.50;;;4.80;;
13891;SDS011;7016;48.172;8.058;2023-04-03T06:21:51;5.47;;;4.32;;
13891;SDS011;7016;48.172;8.058;2023-04-03T06:24:17;8.90;;;4.60;;
13891;SDS011;7016;48.172;8.058;2023-04-03T06:26:43;8.32;;;4.40;;
13891;SDS011;7016;48.172;8.058;2023-04-03T06:29:09;7.57;;;4.97;;
13891;SDS011;7016;48.172;8.058;2023-04-03T06:31:35;6.40;;;4.47;;
13891;SDS011;7016;48.172;8.058;2023-04-03T06:34:02;7.47;;;4.20;;
13891;SDS011;7016;48.172;8.058;2023-04-03T06:36:28;6.82;;;4.57;;
13891;SDS011;7016;48.172;8.058;2023-04-03T06:38:55;6.05;;;4.20;;
13891;SDS011;7016;48.172;8.058;2023-04-03T06:41:21;6.22;;;3.88;;
13891;SDS011;7016;48.172;8.058;2023-04-03T06:43:47;6.30;;;3.83;;
13891;SDS011;7016;48.172;8.058;2023-04-03T06:46:17;8.60;;;4.13;;
13891;SDS011;7016;48.172;8.058;2023-04-03T06:48:44;5.53;;;3.92;;
13891;SDS011;7016;48.172;8.058;2023-04-03T06:51:17;5.72;;;3.60;;
13891;SDS011;7016;48.172;8.058;2023-04-03T06:53:46;5.30;;;3.70;;
13891;SDS011;7016;48.172;8.058;2023-04-03T06:56:12;6.38;;;3.55;;
13891;SDS011;7016;48.172;8.058;2023-04-03T06:58:38;5.47;;;2.92;;
13891;SDS011;7016;48.172;8.058;2023-04-03T07:01:04;6.28;;;3.08;;
13891;SDS011;7016;48.172;8.058;2023-04-03T07:03:30;4.80;;;3.42;;
13891;SDS011;7016;48.172;8.058;2023-04-03T07:05:56;4.68;;;3.15;;
13891;SDS011;7016;48.172;8.058;2023-04-03T07:08:21;5.65;;;2.95;;
13891;SDS011;7016;48.172;8.058;2023-04-03T07:10:48;5.80;;;3.50;;
13891;SDS011;7016;48.172;8.058;2023-04-03T07:13:15;4.60;;;3.42;;
13891;SDS011;7016;48.172;8.058;2023-04-03T07:15:41;6.45;;;3.97;;
13891;SDS011;7016;48.172;8.058;2023-04-03T07:18:06;5.55;;;3.58;;
13891;SDS011;7016;48.172;8.058;2023-04-03T07:20:32;5.75;;;3.72;;
13891;SDS011;7016;48.172;8.058;2023-04-03T07:22:58;4.05;;;3.30;;
13891;SDS011;7016;48.172;8.058;2023-04-03T07:25:24;5.15;;;3.75;;
13891;SDS011;7016;48.172;8.058;2023-04-03T07:27:50;5.55;;;3.60;;
13891;SDS011;7016;48.172;8.058;2023-04-03T07:30:16;6.05;;;3.70;;
13891;SDS011;7016;48.172;8.058;2023-04-03T07:32:41;4.55;;;3.22;;
13891;SDS011;7016;48.172;8.058;2023-04-03T07:35:07;6.45;;;3.78;;
13891;SDS011;7016;48.172;8.058;2023-04-03T07:37:33;6.03;;;3.75;;
13891;SDS011;7016;48.172;8.058;2023-04-03T07:39:59;4.97;;;3.78;;
13891;SDS011;7016;48.172;8.058;2023-04-03T07:42:26;7.28;;;3.55;;
13891;SDS011;7016;48.172;8.058;2023-04-03T07:44:52;5.22;;;3.40;;
13891;SDS011;7016;48.172;8.058;2023-04-03T07:47:18;4.63;;;3.60;;
13891;SDS011;7016;48.172;8.058;2023-04-03T07:49:46;5.22;;;3.15;;
13891;SDS011;7016;48.172;8.058;2023-04-03T07:52:12;4.30;;;3.25;;
13891;SDS011;7016;48.172;8.058;2023-04-03T07:54:39;4.80;;;3.28;;
13891;SDS011;7016;48.172;8.058;2023-04-03T07:57:05;6.30;;;3.95;;
13891;SDS011;7016;48.172;8.058;2023-04-03T07:59:31;5.00;;;3.00;;
13891;SDS011;7016;48.172;8.058;2023-04-03T08:01:57;6.35;;;3.50;;
13891;SDS011;7016;48.172;8.058;2023-04-03T08:04:23;6.07;;;3.45;;
13891;SDS011;7016;48.172;8.058;2023-04-03T08:06:48;4.72;;;3.38;;
13891;SDS011;7016;48.172;8.058;2023-04-03T08:09:15;3.90;;;2.85;;
13891;SDS011;7016;48.172;8.058;2023-04-03T08:11:41;5.60;;;3.53;;
13891;SDS011;7016;48.172;8.058;2023-04-03T08:14:07;5.15;;;3.10;;
13891;SDS011;7016;48.172;8.058;2023-04-03T08:16:32;4.72;;;3.00;;
13891;SDS011;7016;48.172;8.058;2023-04-03T08:18:58;5.50;;;3.03;;
13891;SDS011;7016;48.172;8.058;2023-04-03T08:21:24;6.47;;;3.13;;
13891;SDS011;7016;48.172;8.058;2023-04-03T08:23:51;4.90;;;3.22;;
13891;SDS011;7016;48.172;8.058;2023-04-03T08:26:18;8.32;;;5.35;;
13891;SDS011;7016;48.172;8.058;2023-04-03T08:28:46;5.75;;;3.95;;
13891;SDS011;7016;48.172;8.058;2023-04-03T08:31:14;3.92;;;2.92;;
13891;SDS011;7016;48.172;8.058;2023-04-03T08:33:42;8.18;;;3.13;;
13891;SDS011;7016;48.172;8.058;2023-04-03T08:36:17;3.88;;;3.00;;
13891;SDS011;7016;48.172;8.058;2023-04-03T08:38:47;7.90;;;3.10;;
13891;SDS011;7016;48.172;8.058;2023-04-03T08:41:15;6.55;;;3.00;;
13891;SDS011;7016;48.172;8.058;2023-04-03T08:47:18;4.53;;;3.08;;
13891;SDS011;7016;48.172;8.058;2023-04-03T08:50:11;5.70;;;3.03;;
13891;SDS011;7016;48.172;8.058;2023-04-03T08:57:48;4.20;;;3.35;;
13891;SDS011;7016;48.172;8.058;2023-04-03T09:02:48;3.70;;;2.38;;
13891;SDS011;7016;48.172;8.058;2023-04-03T09:05:20;5.22;;;2.88;;
13891;SDS011;7016;48.172;8.058;2023-04-03T09:10:26;4.18;;;2.47;;
13891;SDS011;7016;48.172;8.058;2023-04-03T09:13:00;2.75;;;2.20;;
13891;SDS011;7016;48.172;8.058;2023-04-03T09:15:38;3.03;;;2.00;;
13891;SDS011;7016;48.172;8.058;2023-04-03T09:18:06;3.88;;;2.10;;
13891;SDS011;7016;48.172;8.058;2023-04-03T09:23:53;2.65;;;2.00;;
13891;SDS011;7016;48.172;8.058;2023-04-03T09:26:28;3.65;;;2.45;;
13891;SDS011;7016;48.172;8.058;2023-04-03T09:29:00;3.35;;;2.00;;
13891;SDS011;7016;48.172;8.058;2023-04-03T09:31:35;3.33;;;2.30;;
13891;SDS011;7016;48.172;8.058;2023-04-03T09:34:05;2.97;;;2.10;;
13891;SDS011;7016;48.172;8.058;2023-04-03T09:36:48;3.40;;;2.15;;
13891;SDS011;7016;48.172;8.058;2023-04-03T09:39:23;2.85;;;1.90;;
13891;SDS011;7016;48.172;8.058;2023-04-03T09:44:36;3.08;;;1.90;;
13891;SDS011;7016;48.172;8.058;2023-04-03T09:47:17;2.40;;;1.80;;
13891;SDS011;7016;48.172;8.058;2023-04-03T09:49:48;3.38;;;1.92;;
13891;SDS011;7016;48.172;8.058;2023-04-03T09:52:24;5.32;;;2.50;;
13891;SDS011;7016;48.172;8.058;2023-04-03T09:54:51;5.28;;;2.10;;
13891;SDS011;7016;48.172;8.058;2023-04-03T09:57:17;3.80;;;2.10;;
13891;SDS011;7016;48.172;8.058;2023-04-03T10:00:05;5.55;;;2.10;;
13891;SDS011;7016;48.172;8.058;2023-04-03T10:02:32;3.95;;;2.03;;
13891;SDS011;7016;48.172;8.058;2023-04-03T10:05:01;3.70;;;2.05;;
13891;SDS011;7016;48.172;8.058;2023-04-03T10:07:35;3.25;;;2.10;;
13891;SDS011;7016;48.172;8.058;2023-04-03T10:10:16;5.10;;;2.47;;
13891;SDS011;7016;48.172;8.058;2023-04-03T10:12:45;2.65;;;1.90;;
13891;SDS011;7016;48.172;8.058;2023-04-03T10:15:15;4.68;;;2.33;;
13891;SDS011;7016;48.172;8.058;2023-04-03T10:17:51;3.08;;;2.30;;
13891;SDS011;7016;48.172;8.058;2023-04-03T10:20:29;4.63;;;2.05;;
13891;SDS011;7016;48.172;8.058;2023-04-03T10:25:52;5.47;;;2.10;;
13891;SDS011;7016;48.172;8.058;2023-04-03T10:28:31;4.00;;;2.20;;
13891;SDS011;7016;48.172;8.058;2023-04-03T10:36:42;3.45;;;2.40;;
13891;SDS011;7016;48.172;8.058;2023-04-03T10:39:30;3.08;;;2.00;;
13891;SDS011;7016;48.172;8.058;2023-04-03T10:53:05;4.72;;;2.00;;
13891;SDS011;7016;48.172;8.058;2023-04-03T10:58:29;5.72;;;3.20;;
13891;SDS011;7016;48.172;8.058;2023-04-03T11:01:16;2.92;;;2.20;;
13891;SDS011;7016;48.172;8.058;2023-04-03T11:03:51;3.17;;;2.25;;
13891;SDS011;7016;48.172;8.058;2023-04-03T11:06:21;3.05;;;2.03;;
13891;SDS011;7016;48.172;8.058;2023-04-03T11:08:55;4.97;;;2.95;;
13891;SDS011;7016;48.172;8.058;2023-04-03T11:11:24;3.75;;;2.30;;
13891;SDS011;7016;48.172;8.058;2023-04-03T11:14:02;4.47;;;2.35;;
13891;SDS011;7016;48.172;8.058;2023-04-03T11:16:47;3.72;;;1.90;;
13891;SDS011;7016;48.172;8.058;2023-04-03T11:22:38;5.40;;;2.65;;
13891;SDS011;7016;48.172;8.058;2023-04-03T11:25:13;2.60;;;1.92;;
13891;SDS011;7016;48.172;8.058;2023-04-03T11:27:48;4.85;;;2.50;;
13891;SDS011;7016;48.172;8.058;2023-04-03T11:35:48;4.15;;;2.33;;
13891;SDS011;7016;48.172;8.058;2023-04-03T11:38:21;4.63;;;2.72;;
13891;SDS011;7016;48.172;8.058;2023-04-03T11:40:52;5.53;;;3.72;;
13891;SDS011;7016;48.172;8.058;2023-04-03T11:50:53;3.70;;;2.25;;
13891;SDS011;7016;48.172;8.058;2023-04-03T11:53:42;5.88;;;3.63;;
13891;SDS011;7016;48.172;8.058;2023-04-03T12:01:49;2.92;;;2.00;;
13891;SDS011;7016;48.172;8.058;2023-04-03T12:04:32;5.47;;;2.70;;
13891;SDS011;7016;48.172;8.058;2023-04-03T12:07:12;6.32;;;2.72;;
13891;SDS011;7016;48.172;8.058;2023-04-03T12:17:46;3.47;;;2.20;;
13891;SDS011;7016;48.172;8.058;2023-04-03T12:23:23;4.47;;;2.20;;
13891;SDS011;7016;48.172;8.058;2023-04-03T12:25:51;4.78;;;2.30;;
13891;SDS011;7016;48.172;8.058;2023-04-03T12:28:24;3.67;;;2.00;;
13891;SDS011;7016;48.172;8.058;2023-04-03T12:30:50;3.80;;;2.13;;
13891;SDS011;7016;48.172;8.058;2023-04-03T12:36:11;6.00;;;2.50;;
13891;SDS011;7016;48.172;8.058;2023-04-03T12:47:31;6.53;;;2.35;;
13891;SDS011;7016;48.172;8.058;2023-04-03T12:50:01;5.20;;;1.90;;
13891;SDS011;7016;48.172;8.058;2023-04-03T12:52:31;3.38;;;2.20;;
13891;SDS011;7016;48.172;8.058;2023-04-03T12:55:07;4.15;;;2.20;;
13891;SDS011;7016;48.172;8.058;2023-04-03T12:57:40;5.82;;;2.28;;
13891;SDS011;7016;48.172;8.058;2023-04-03T13:02:53;5.20;;;2.15;;
13891;SDS011;7016;48.172;8.058;2023-04-03T13:05:19;3.83;;;2.03;;
13891;SDS011;7016;48.172;8.058;2023-04-03T13:08:07;4.65;;;2.47;;
13891;SDS011;7016;48.172;8.058;2023-04-03T13:10:49;5.10;;;2.22;;
13891;SDS011;7016;48.172;8.058;2023-04-03T13:13:23;3.67;;;2.35;;
13891;SDS011;7016;48.172;8.058;2023-04-03T13:15:49;4.93;;;3.47;;
13891;SDS011;7016;48.172;8.058;2023-04-03T13:18:30;4.93;;;2.67;;
13891;SDS011;7016;48.172;8.058;2023-04-03T13:21:01;5.25;;;2.60;;
13891;SDS011;7016;48.172;8.058;2023-04-03T13:23:35;5.53;;;2.00;;
13891;SDS011;7016;48.172;8.058;2023-04-03T13:26:05;6.85;;;2.20;;
13891;SDS011;7016;48.172;8.058;2023-04-03T13:28:32;3.42;;;1.90;;
13891;SDS011;7016;48.172;8.058;2023-04-03T13:36:40;3.95;;;2.10;;
13891;SDS011;7016;48.172;8.058;2023-04-03T13:39:26;3.63;;;1.98;;
13891;SDS011;7016;48.172;8.058;2023-04-03T13:41:55;6.60;;;2.22;;
13891;SDS011;7016;48.172;8.058;2023-04-03T13:46:48;4.65;;;2.30;;
13891;SDS011;7016;48.172;8.058;2023-04-03T13:51:57;5.22;;;2.40;;
13891;SDS011;7016;48.172;8.058;2023-04-03T13:54:24;3.42;;;1.92;;
13891;SDS011;7016;48.172;8.058;2023-04-03T13:56:57;4.07;;;2.20;;
13891;SDS011;7016;48.172;8.058;2023-04-03T13:59:29;3.80;;;2.40;;
13891;SDS011;7016;48.172;8.058;2023-04-03T14:04:32;3.40;;;2.08;;
13891;SDS011;7016;48.172;8.058;2023-04-03T14:07:02;5.93;;;2.30;;
13891;SDS011;7016;48.172;8.058;2023-04-03T14:09:28;4.82;;;2.70;;
13891;SDS011;7016;48.172;8.058;2023-04-03T14:11:56;4.20;;;2.10;;
13891;SDS011;7016;48.172;8.058;2023-04-03T14:14:29;4.70;;;3.20;;
13891;SDS011;7016;48.172;8.058;2023-04-03T14:16:59;4.22;;;2.72;;
13891;SDS011;7016;48.172;8.058;2023-04-03T14:19:31;5.22;;;2.28;;
13891;SDS011;7016;48.172;8.058;2023-04-03T14:21:58;6.18;;;2.25;;
13891;SDS011;7016;48.172;8.058;2023-04-03T14:24:25;4.60;;;2.35;;
13891;SDS011;7016;48.172;8.058;2023-04-03T14:26:53;4.55;;;2.42;;
13891;SDS011;7016;48.172;8.058;2023-04-03T14:29:20;4.65;;;2.40;;
13891;SDS011;7016;48.172;8.058;2023-04-03T14:31:47;2.83;;;2.10;;
13891;SDS011;7016;48.172;8.058;2023-04-03T14:34:14;4.85;;;2.15;;
13891;SDS011;7016;48.172;8.058;2023-04-03T14:36:41;4.80;;;2.70;;
13891;SDS011;7016;48.172;8.058;2023-04-03T14:39:10;5.35;;;2.15;;
13891;SDS011;7016;48.172;8.058;2023-04-03T14:41:41;4.93;;;2.20;;
13891;SDS011;7016;48.172;8.058;2023-04-03T14:44:08;6.35;;;2.90;;
13891;SDS011;7016;48.172;8.058;2023-04-03T14:46:40;7.18;;;2.80;;
13891;SDS011;7016;48.172;8.058;2023-04-03T14:49:15;3.30;;;2.00;;
13891;SDS011;7016;48.172;8.058;2023-04-03T14:51:45;4.28;;;1.90;;
13891;SDS011;7016;48.172;8.058;2023-04-03T14:54:13;5.32;;;2.30;;
13891;SDS011;7016;48.172;8.058;2023-04-03T14:56:41;4.97;;;2.25;;
13891;SDS011;7016;48.172;8.058;2023-04-03T14:59:13;3.03;;;1.88;;
13891;SDS011;7016;48.172;8.058;2023-04-03T15:01:40;3.88;;;1.65;;
13891;SDS011;7016;48.172;8.058;2023-04-03T15:04:19;3.28;;;1.88;;
13891;SDS011;7016;48.172;8.058;2023-04-03T15:06:46;6.15;;;2.38;;
13891;SDS011;7016;48.172;8.058;2023-04-03T15:09:19;3.00;;;1.90;;
13891;SDS011;7016;48.172;8.058;2023-04-03T15:11:51;5.18;;;3.00;;
13891;SDS011;7016;48.172;8.058;2023-04-03T15:14:18;4.88;;;2.63;;
13891;SDS011;7016;48.172;8.058;2023-04-03T15:16:44;7.13;;;1.98;;
13891;SDS011;7016;48.172;8.058;2023-04-03T15:19:10;4.70;;;2.38;;
13891;SDS011;7016;48.172;8.058;2023-04-03T15:21:36;4.97;;;2.03;;
13891;SDS011;7016;48.172;8.058;2023-04-03T15:24:03;3.40;;;2.33;;
13891;SDS011;7016;48.172;8.058;2023-04-03T15:26:29;6.53;;;2.13;;
13891;SDS011;7016;48.172;8.058;2023-04-03T15:28:56;5.70;;;2.15;;
13891;SDS011;7016;48.172;8.058;2023-04-03T15:31:22;3.78;;;1.90;;
13891;SDS011;7016;48.172;8.058;2023-04-03T15:33:47;8.50;;;2.20;;
13891;SDS011;7016;48.172;8.058;2023-04-03T15:36:13;4.47;;;1.90;;
13891;SDS011;7016;48.172;8.058;2023-04-03T15:38:38;6.35;;;1.90;;
13891;SDS011;7016;48.172;8.058;2023-04-03T15:41:04;5.80;;;2.50;;
13891;SDS011;7016;48.172;8.058;2023-04-03T15:43:30;3.78;;;2.20;;
13891;SDS011;7016;48.172;8.058;2023-04-03T15:46:00;5.65;;;1.73;;
13891;SDS011;7016;48.172;8.058;2023-04-03T15:48:26;4.40;;;2.03;;
13891;SDS011;7016;48.172;8.058;2023-04-03T15:50:53;3.53;;;2.08;;
13891;SDS011;7016;48.172;8.058;2023-04-03T15:53:19;6.60;;;2.10;;
13891;SDS011;7016;48.172;8.058;2023-04-03T15:55:46;7.28;;;2.70;;
13891;SDS011;7016;48.172;8.058;2023-04-03T15:58:12;9.30;;;3.88;;
13891;SDS011;7016;48.172;8.058;2023-04-03T16:00:37;6.80;;;2.20;;
13891;SDS011;7016;48.172;8.058;2023-04-03T16:03:04;8.73;;;2.40;;
13891;SDS011;7016;48.172;8.058;2023-04-03T16:05:33;6.85;;;3.65;;
13891;SDS011;7016;48.172;8.058;2023-04-03T16:08:01;3.83;;;2.35;;
13891;SDS011;7016;48.172;8.058;2023-04-03T16:10:28;4.65;;;2.10;;
13891;SDS011;7016;48.172;8.058;2023-04-03T16:12:54;2.45;;;1.55;;
13891;SDS011;7016;48.172;8.058;2023-04-03T16:15:20;4.80;;;2.45;;
13891;SDS011;7016;48.172;8.058;2023-04-03T16:17:45;4.43;;;2.00;;
13891;SDS011;7016;48.172;8.058;2023-04-03T16:20:13;5.65;;;1.90;;
13891;SDS011;7016;48.172;8.058;2023-04-03T16:22:39;4.95;;;2.10;;
13891;SDS011;7016;48.172;8.058;2023-04-03T16:25:06;5.60;;;2.30;;
13891;SDS011;7016;48.172;8.058;2023-04-03T16:27:33;6.45;;;2.22;;
13891;SDS011;7016;48.172;8.058;2023-04-03T16:29:59;4.15;;;2.22;;
13891;SDS011;7016;48.172;8.058;2023-04-03T16:32:26;3.72;;;1.88;;
13891;SDS011;7016;48.172;8.058;2023-04-03T16:34:54;4.25;;;2.15;;
13891;SDS011;7016;48.172;8.058;2023-04-03T16:37:20;2.70;;;1.67;;
13891;SDS011;7016;48.172;8.058;2023-04-03T16:39:46;7.70;;;3.03;;
13891;SDS011;7016;48.172;8.058;2023-04-03T16:42:11;19.33;;;9.43;;
13891;SDS011;7016;48.172;8.058;2023-04-03T16:44:37;4.57;;;2.00;;
13891;SDS011;7016;48.172;8.058;2023-04-03T16:47:04;4.70;;;2.20;;
13891;SDS011;7016;48.172;8.058;2023-04-03T16:49:31;7.07;;;2.33;;
13891;SDS011;7016;48.172;8.058;2023-04-03T16:52:04;5.88;;;2.40;;
13891;SDS011;7016;48.172;8.058;2023-04-03T16:54:30;3.42;;;1.70;;
13891;SDS011;7016;48.172;8.058;2023-04-03T16:56:57;4.35;;;2.30;;
13891;SDS011;7016;48.172;8.058;2023-04-03T16:59:23;4.55;;;2.33;;